createdAt,value
2022-11-30T00:01:28.179Z,101929.03
2022-11-30T00:03:56.005Z,101933.34
2022-11-30T00:06:23.721Z,101931.44
2022-11-30T00:08:56.375Z,101932.34
2022-11-30T00:11:24.289Z,101928.06
2022-11-30T00:13:50.769Z,101928.06
2022-11-30T00:16:17.086Z,101931.34
2022-11-30T00:18:43.517Z,101926.19
2022-11-30T00:21:12.884Z,101929.72
2022-11-30T00:23:41.687Z,101924.34
2022-11-30T00:26:11.060Z,101924.44
2022-11-30T00:28:38.642Z,101928.69
2022-11-30T00:31:08.637Z,101926.94
2022-11-30T00:33:36.617Z,101931.19
2022-11-30T00:36:06.678Z,101934.50
2022-11-30T00:38:33.677Z,101937.13
2022-11-30T00:41:01.567Z,101934.59
2022-11-30T00:43:28.146Z,101940.69
2022-11-30T00:45:55.140Z,101947.59
2022-11-30T00:48:21.716Z,101944.13
2022-11-30T00:50:49.408Z,101946.66
2022-11-30T00:53:16.179Z,101955.97
2022-11-30T00:55:43.987Z,101954.88
2022-11-30T00:58:10.756Z,101954.22
2022-11-30T01:00:37.499Z,101947.44
2022-11-30T01:03:03.883Z,101953.44
2022-11-30T01:05:32.081Z,101951.81
2022-11-30T01:08:00.655Z,101952.75
2022-11-30T01:10:27.170Z,101956.38
2022-11-30T01:12:54.050Z,101952.88
2022-11-30T01:15:20.443Z,101954.66
2022-11-30T01:17:46.823Z,101965.03
2022-11-30T01:20:13.259Z,101959.91
2022-11-30T01:22:39.553Z,101965.91
2022-11-30T01:25:06.034Z,101966.16
2022-11-30T01:27:32.323Z,101967.84
2022-11-30T01:29:58.639Z,101970.44
2022-11-30T01:32:24.990Z,101973.13
2022-11-30T01:34:51.304Z,101976.47
2022-11-30T01:37:17.599Z,101973.00
2022-11-30T01:39:43.907Z,101975.44
2022-11-30T01:42:15.600Z,101971.25
2022-11-30T01:44:50.905Z,101971.31
2022-11-30T01:47:20.776Z,101973.91
2022-11-30T01:49:54.034Z,101968.81
2022-11-30T01:52:33.615Z,101961.00
2022-11-30T01:55:11.644Z,101948.88
2022-11-30T01:57:42.328Z,101952.00
2022-11-30T02:00:12.467Z,101952.13
2022-11-30T02:03:00.652Z,101950.53
2022-11-30T02:05:27.865Z,101945.28
2022-11-30T02:07:54.683Z,101948.69
2022-11-30T02:10:32.707Z,101952.06
2022-11-30T02:13:28.786Z,101955.50
2022-11-30T02:16:13.151Z,101959.59
2022-11-30T02:18:50.151Z,101952.75
2022-11-30T02:21:31.577Z,101952.81
2022-11-30T02:24:11.197Z,101951.91
2022-11-30T02:26:54.586Z,101956.78
2022-11-30T02:29:39.709Z,101954.97
2022-11-30T02:32:29.012Z,101954.22
2022-11-30T02:34:58.216Z,101956.97
2022-11-30T02:37:26.398Z,101957.16
2022-11-30T02:39:52.734Z,101957.22
2022-11-30T02:42:19.007Z,101955.31
2022-11-30T02:44:49.110Z,101964.00
2022-11-30T02:47:33.855Z,101957.97
2022-11-30T02:50:07.460Z,101961.50
2022-11-30T02:52:34.726Z,101957.22
2022-11-30T02:55:02.918Z,101967.53
2022-11-30T02:57:29.278Z,101971.84
2022-11-30T02:59:56.177Z,101958.69
2022-11-30T03:02:22.549Z,101974.22
2022-11-30T03:04:49.093Z,101969.22
2022-11-30T03:07:15.719Z,101969.91
2022-11-30T03:09:42.072Z,101975.84
2022-11-30T03:12:08.383Z,101980.22
2022-11-30T03:14:34.660Z,101984.63
2022-11-30T03:17:01.279Z,101986.22
2022-11-30T03:19:27.643Z,101988.84
2022-11-30T03:21:53.955Z,101992.44
2022-11-30T03:24:20.306Z,101991.41
2022-11-30T03:26:46.588Z,101993.63
2022-11-30T03:29:12.918Z,101985.91
2022-11-30T03:31:39.263Z,101992.94
2022-11-30T03:34:05.551Z,101992.00
2022-11-30T03:36:31.890Z,101999.00
2022-11-30T03:38:58.330Z,101995.56
2022-11-30T03:41:24.670Z,102004.13
2022-11-30T03:43:51.139Z,102011.03
2022-11-30T03:46:17.650Z,102013.59
2022-11-30T03:48:44.453Z,102012.63
2022-11-30T03:51:12.409Z,102008.31
2022-11-30T03:53:39.520Z,101999.84
2022-11-30T03:56:08.229Z,102004.16
2022-11-30T03:58:35.367Z,102000.50
2022-11-30T04:01:06.551Z,102008.34
2022-11-30T04:03:34.482Z,102000.59
2022-11-30T04:06:00.837Z,102002.47
2022-11-30T04:08:27.785Z,102000.81
2022-11-30T04:10:55.746Z,101999.91
2022-11-30T04:13:23.263Z,102012.88
2022-11-30T04:15:51.436Z,102008.63
2022-11-30T04:18:19.691Z,102007.72
2022-11-30T04:20:46.653Z,102006.78
2022-11-30T04:23:13.502Z,102011.91
2022-11-30T04:25:41.328Z,102008.25
2022-11-30T04:28:08.819Z,102006.34
2022-11-30T04:30:36.676Z,102012.50
2022-11-30T04:33:04.006Z,102014.19
2022-11-30T04:35:30.311Z,102015.28
2022-11-30T04:37:56.593Z,102008.34
2022-11-30T04:40:22.902Z,102004.78
2022-11-30T04:42:49.201Z,102013.50
2022-11-30T04:45:15.775Z,102012.72
2022-11-30T04:47:42.521Z,102017.03
2022-11-30T04:50:09.755Z,102014.59
2022-11-30T04:52:36.453Z,102018.94
2022-11-30T04:55:04.201Z,102018.84
2022-11-30T04:57:31.260Z,102019.84
2022-11-30T04:59:57.733Z,102020.84
2022-11-30T05:02:24.077Z,102017.56
2022-11-30T05:04:50.825Z,102019.13
2022-11-30T05:07:17.490Z,102013.75
2022-11-30T05:09:43.808Z,102018.03
2022-11-30T05:12:10.104Z,102020.63
2022-11-30T05:14:36.444Z,102018.06
2022-11-30T05:17:02.776Z,102027.72
2022-11-30T05:19:29.099Z,102026.16
2022-11-30T05:21:55.403Z,102037.16
2022-11-30T05:24:21.677Z,102029.31
2022-11-30T05:26:47.994Z,102031.13
2022-11-30T05:29:14.277Z,102030.94
2022-11-30T05:31:40.897Z,102043.09
2022-11-30T05:34:07.266Z,102047.38
2022-11-30T05:36:33.579Z,102051.41
2022-11-30T05:38:59.865Z,102048.06
2022-11-30T05:41:26.251Z,102049.03
2022-11-30T05:43:52.543Z,102051.50
2022-11-30T05:46:19.028Z,102054.81
2022-11-30T05:48:45.390Z,102060.00
2022-11-30T05:51:15.274Z,102059.97
2022-11-30T05:53:42.955Z,102057.63
2022-11-30T05:56:20.434Z,102061.09
2022-11-30T05:58:47.184Z,102062.16
2022-11-30T06:01:25.459Z,102055.94
2022-11-30T06:03:51.867Z,102059.22
2022-11-30T06:06:18.718Z,102068.75
2022-11-30T06:08:46.445Z,102067.31
2022-11-30T06:11:14.937Z,102074.03
2022-11-30T06:13:42.065Z,102075.38
2022-11-30T06:16:09.831Z,102079.66
2022-11-30T06:18:37.264Z,102073.94
2022-11-30T06:21:06.442Z,102080.72
2022-11-30T06:23:33.105Z,102077.25
2022-11-30T06:26:06.879Z,102085.03
2022-11-30T06:28:33.823Z,102081.31
2022-11-30T06:31:01.116Z,102084.16
2022-11-30T06:33:28.102Z,102085.91
2022-11-30T06:35:54.440Z,102079.78
2022-11-30T06:38:21.765Z,102082.59
2022-11-30T06:40:48.209Z,102090.72
2022-11-30T06:43:14.660Z,102092.72
2022-11-30T06:45:44.430Z,102084.94
2022-11-30T06:48:11.694Z,102094.63
2022-11-30T06:50:38.155Z,102093.13
2022-11-30T06:53:04.630Z,102093.91
2022-11-30T06:55:32.743Z,102096.59
2022-11-30T06:58:07.391Z,102097.41
2022-11-30T07:00:34.022Z,102101.72
2022-11-30T07:03:00.313Z,102102.66
2022-11-30T07:05:26.861Z,102099.22
2022-11-30T07:07:53.206Z,102097.41
2022-11-30T07:10:22.622Z,102094.94
2022-11-30T07:12:49.709Z,102108.53
2022-11-30T07:15:16.463Z,102112.03
2022-11-30T07:17:42.815Z,102109.16
2022-11-30T07:20:09.702Z,102115.19
2022-11-30T07:22:35.973Z,102112.81
2022-11-30T07:25:21.072Z,102115.59
2022-11-30T07:27:47.341Z,102110.81
2022-11-30T07:30:14.010Z,102115.16
2022-11-30T07:32:40.279Z,102117.78
2022-11-30T07:35:06.833Z,102120.31
2022-11-30T07:37:33.139Z,102122.19
2022-11-30T07:39:59.451Z,102120.50
2022-11-30T07:42:25.716Z,102122.34
2022-11-30T07:44:58.162Z,102119.69
2022-11-30T07:47:24.855Z,102111.19
2022-11-30T07:49:51.137Z,102122.44
2022-11-30T07:52:17.503Z,102123.41
2022-11-30T07:54:43.847Z,102121.00
2022-11-30T07:57:10.150Z,102127.63
2022-11-30T07:59:36.445Z,102122.47
2022-11-30T08:02:03.013Z,102131.72
2022-11-30T08:04:29.435Z,102125.59
2022-11-30T08:06:55.837Z,102130.00
2022-11-30T08:09:22.717Z,102126.75
2022-11-30T08:11:49.157Z,102130.34
2022-11-30T08:14:15.554Z,102127.63
2022-11-30T08:16:44.007Z,102131.16
2022-11-30T08:19:10.440Z,102145.59
2022-11-30T08:21:37.968Z,102137.06
2022-11-30T08:24:04.665Z,102135.38
2022-11-30T08:26:33.295Z,102139.84
2022-11-30T08:29:01.021Z,102146.88
2022-11-30T08:31:30.525Z,102143.13
2022-11-30T08:33:59.114Z,102138.03
2022-11-30T08:36:27.010Z,102144.81
2022-11-30T08:38:53.698Z,102153.44
2022-11-30T08:41:22.073Z,102155.97
2022-11-30T08:43:49.549Z,102149.97
2022-11-30T08:46:49.652Z,102162.78
2022-11-30T08:49:23.111Z,102163.75
2022-11-30T08:52:16.543Z,102155.31
2022-11-30T08:54:38.945Z,102164.69
2022-11-30T08:57:05.215Z,102160.28
2022-11-30T08:59:31.970Z,102168.00
2022-11-30T09:01:58.259Z,102168.97
2022-11-30T09:04:24.617Z,102169.94
2022-11-30T09:06:50.883Z,102174.28
2022-11-30T09:09:17.232Z,102180.25
2022-11-30T09:11:43.633Z,102176.81
2022-11-30T09:14:10.156Z,102180.06
2022-11-30T09:16:36.582Z,102174.19
2022-11-30T09:19:03.398Z,102178.63
2022-11-30T09:21:30.331Z,102183.56
2022-11-30T09:23:56.897Z,102190.28
2022-11-30T09:26:25.126Z,102192.84
2022-11-30T09:28:52.842Z,102191.06
2022-11-30T09:31:24.428Z,102191.88
2022-11-30T09:33:51.474Z,102195.44
2022-11-30T09:36:20.841Z,102193.72
2022-11-30T09:38:48.076Z,102199.19
2022-11-30T09:41:53.881Z,102190.88
2022-11-30T09:44:23.300Z,102191.03
2022-11-30T09:47:13.550Z,102191.63
2022-11-30T09:49:44.072Z,102199.72
2022-11-30T09:52:20.672Z,102197.75
2022-11-30T09:54:48.058Z,102193.41
2022-11-30T09:57:17.313Z,102189.16
2022-11-30T09:59:51.778Z,102194.31
2022-11-30T10:02:18.791Z,102190.16
2022-11-30T10:04:45.622Z,102187.69
2022-11-30T10:07:50.996Z,102195.44
2022-11-30T10:10:33.317Z,102189.03
2022-11-30T10:13:23.281Z,102186.34
2022-11-30T10:16:13.947Z,102190.69
2022-11-30T10:18:40.228Z,102185.72
2022-11-30T10:21:43.828Z,102186.81
2022-11-30T10:24:15.033Z,102187.63
2022-11-30T10:26:51.846Z,102189.44
2022-11-30T10:29:20.782Z,102181.03
2022-11-30T10:31:50.989Z,102179.28
2022-11-30T10:34:30.209Z,102173.91
2022-11-30T10:36:56.450Z,102179.00
2022-11-30T10:39:30.624Z,102185.22
2022-11-30T10:42:04.805Z,102186.66
2022-11-30T10:44:35.469Z,102179.66
2022-11-30T10:47:10.965Z,102180.66
2022-11-30T10:49:40.018Z,102177.31
2022-11-30T10:52:08.985Z,102178.06
2022-11-30T10:54:36.898Z,102176.22
2022-11-30T10:57:06.658Z,102178.06
2022-11-30T10:59:54.846Z,102178.03
2022-11-30T11:02:48.174Z,102180.63
2022-11-30T11:05:19.340Z,102176.44
2022-11-30T11:07:58.716Z,102178.63
2022-11-30T11:10:30.490Z,102182.22
2022-11-30T11:12:57.691Z,102179.06
2022-11-30T11:15:32.688Z,102189.50
2022-11-30T11:18:26.352Z,102191.91
2022-11-30T11:21:14.367Z,102179.06
2022-11-30T11:23:42.761Z,102183.44
2022-11-30T11:26:19.065Z,102179.75
2022-11-30T11:28:49.671Z,102178.84
2022-11-30T11:31:32.800Z,102189.41
2022-11-30T11:33:59.249Z,102184.94
2022-11-30T11:36:28.916Z,102185.63
2022-11-30T11:38:56.151Z,102191.66
2022-11-30T11:41:25.435Z,102190.88
2022-11-30T11:44:10.058Z,102183.81
2022-11-30T11:46:51.938Z,102187.50
2022-11-30T11:49:22.040Z,102184.13
2022-11-30T11:52:03.833Z,102184.28
2022-11-30T11:54:39.146Z,102185.88
2022-11-30T11:57:11.599Z,102183.44
2022-11-30T11:59:45.941Z,102184.47
2022-11-30T12:02:37.615Z,102191.91
2022-11-30T12:05:15.612Z,102189.34
2022-11-30T12:07:54.722Z,102192.69
2022-11-30T12:13:21.232Z,102190.31
2022-11-30T12:16:25.149Z,102190.97
2022-11-30T12:19:00.897Z,102195.38
2022-11-30T12:21:56.639Z,102191.88
2022-11-30T12:24:48.387Z,102193.66
2022-11-30T12:28:07.438Z,102201.16
2022-11-30T12:30:54.786Z,102201.25
2022-11-30T12:33:47.826Z,102191.72
2022-11-30T12:36:30.519Z,102194.66
2022-11-30T12:39:38.495Z,102197.91
2022-11-30T12:42:12.377Z,102202.97
2022-11-30T12:44:58.117Z,102203.69
2022-11-30T12:47:47.255Z,102202.06
2022-11-30T12:50:29.474Z,102204.63
2022-11-30T12:53:21.907Z,102207.19
2022-11-30T12:56:02.618Z,102211.59
2022-11-30T12:58:38.048Z,102207.75
2022-11-30T13:01:21.536Z,102217.97
2022-11-30T13:03:53.417Z,102215.88
2022-11-30T13:06:38.098Z,102215.88
2022-11-30T13:09:15.236Z,102218.44
2022-11-30T13:11:46.215Z,102213.00
2022-11-30T13:14:20.103Z,102222.38
2022-11-30T13:16:47.943Z,102223.22
2022-11-30T13:19:23.140Z,102223.13
2022-11-30T13:21:56.857Z,102218.94
2022-11-30T13:24:29.429Z,102226.56
2022-11-30T13:27:07.022Z,102229.06
2022-11-30T13:29:59.240Z,102234.13
2022-11-30T13:32:56.630Z,102231.63
2022-11-30T13:35:30.158Z,102231.66
2022-11-30T13:41:08.706Z,102233.47
2022-11-30T13:43:42.567Z,102231.06
2022-11-30T13:46:23.483Z,102229.34
2022-11-30T13:49:12.292Z,102234.34
2022-11-30T13:51:40.092Z,102238.44
2022-11-30T13:54:42.276Z,102242.69
2022-11-30T13:57:39.220Z,102233.16
2022-11-30T14:00:30.244Z,102235.53
2022-11-30T14:03:21.593Z,102241.00
2022-11-30T14:06:23.272Z,102234.66
2022-11-30T14:08:52.191Z,102241.63
2022-11-30T14:11:40.189Z,102236.50
2022-11-30T14:14:45.352Z,102241.75
2022-11-30T14:17:16.715Z,102244.44
2022-11-30T14:19:46.047Z,102246.88
2022-11-30T14:22:14.406Z,102244.44
2022-11-30T14:24:44.040Z,102244.53
2022-11-30T14:27:17.446Z,102243.66
2022-11-30T14:29:48.586Z,102247.44
2022-11-30T14:32:37.882Z,102253.78
2022-11-30T14:35:10.354Z,102247.03
2022-11-30T14:37:52.575Z,102251.94
2022-11-30T14:40:21.816Z,102251.03
2022-11-30T14:42:54.252Z,102255.28
2022-11-30T14:45:32.471Z,102253.88
2022-11-30T14:48:15.538Z,102254.66
2022-11-30T14:50:54.743Z,102260.03
2022-11-30T14:53:37.529Z,102259.03
2022-11-30T14:56:30.082Z,102264.75
2022-11-30T14:59:18.363Z,102260.34
2022-11-30T15:01:45.284Z,102264.75
2022-11-30T15:04:16.016Z,102266.41
2022-11-30T15:06:43.169Z,102255.84
2022-11-30T15:09:17.914Z,102259.59
2022-11-30T15:11:47.086Z,102257.91
2022-11-30T15:14:13.975Z,102263.13
2022-11-30T15:16:49.203Z,102268.09
2022-11-30T15:19:23.199Z,102266.28
2022-11-30T15:21:50.876Z,102258.66
2022-11-30T15:24:17.632Z,102271.56
2022-11-30T15:26:57.455Z,102267.34
2022-11-30T15:29:34.632Z,102268.88
2022-11-30T15:32:05.188Z,102266.25
2022-11-30T15:34:40.057Z,102261.78
2022-11-30T15:37:07.552Z,102261.66
2022-11-30T15:39:34.039Z,102253.84
2022-11-30T15:42:02.631Z,102262.41
2022-11-30T15:44:38.645Z,102260.72
2022-11-30T15:47:25.456Z,102254.56
2022-11-30T15:49:55.760Z,102264.94
2022-11-30T15:52:27.515Z,102270.09
2022-11-30T15:54:58.727Z,102266.84
2022-11-30T15:57:27.189Z,102275.38
2022-11-30T16:00:19.134Z,102281.56
2022-11-30T16:02:45.695Z,102274.53
2022-11-30T16:05:14.502Z,102272.00
2022-11-30T16:07:59.832Z,102274.59
2022-11-30T16:10:35.468Z,102290.06
2022-11-30T16:13:02.218Z,102282.31
2022-11-30T16:15:36.355Z,102282.63
2022-11-30T16:18:23.464Z,102279.16
2022-11-30T16:20:52.740Z,102283.66
2022-11-30T16:23:19.770Z,102282.63
2022-11-30T16:25:48.277Z,102282.41
2022-11-30T16:28:16.454Z,102290.38
2022-11-30T16:30:44.140Z,102291.09
2022-11-30T16:33:27.679Z,102299.16
2022-11-30T16:35:59.238Z,102292.41
2022-11-30T16:38:26.096Z,102296.56
2022-11-30T16:40:56.121Z,102301.41
2022-11-30T16:43:25.695Z,102302.19
2022-11-30T16:45:52.025Z,102305.75
2022-11-30T16:48:18.892Z,102306.78
2022-11-30T16:50:45.457Z,102302.47
2022-11-30T16:53:17.185Z,102309.97
2022-11-30T16:55:43.610Z,102306.66
2022-11-30T16:58:09.935Z,102309.31
2022-11-30T17:00:39.588Z,102321.47
2022-11-30T17:03:17.623Z,102314.47
2022-11-30T17:05:43.947Z,102317.53
2022-11-30T17:08:10.864Z,102322.00
2022-11-30T17:10:40.035Z,102325.50
2022-11-30T17:13:06.520Z,102317.09
2022-11-30T17:15:32.851Z,102329.22
2022-11-30T17:17:59.284Z,102335.34
2022-11-30T17:20:27.428Z,102330.97
2022-11-30T17:22:53.836Z,102330.19
2022-11-30T17:25:22.633Z,102334.38
2022-11-30T17:27:49.731Z,102335.00
2022-11-30T17:30:19.807Z,102336.13
2022-11-30T17:32:46.410Z,102331.81
2022-11-30T17:35:12.785Z,102336.47
2022-11-30T17:37:39.152Z,102337.94
2022-11-30T17:40:06.966Z,102341.38
2022-11-30T17:42:33.314Z,102344.91
2022-11-30T17:44:59.602Z,102349.59
2022-11-30T17:47:25.912Z,102347.81
2022-11-30T17:49:52.386Z,102352.00
2022-11-30T17:52:18.730Z,102346.56
2022-11-30T17:54:45.115Z,102342.22
2022-11-30T17:57:11.629Z,102349.13
2022-11-30T17:59:37.978Z,102354.38
2022-11-30T18:02:04.792Z,102356.06
2022-11-30T18:04:31.192Z,102357.72
2022-11-30T18:06:57.507Z,102357.72
2022-11-30T18:09:24.234Z,102358.34
2022-11-30T18:11:50.583Z,102362.97
2022-11-30T18:14:16.973Z,102366.31
2022-11-30T18:16:43.279Z,102364.72
2022-11-30T18:19:14.740Z,102361.06
2022-11-30T18:21:44.018Z,102362.97
2022-11-30T18:24:12.089Z,102365.00
2022-11-30T18:26:39.311Z,102365.00
2022-11-30T18:29:06.144Z,102370.69
2022-11-30T18:31:32.536Z,102368.09
2022-11-30T18:34:06.247Z,102373.19
2022-11-30T18:36:33.653Z,102376.16
2022-11-30T18:38:59.994Z,102372.47
2022-11-30T18:41:28.370Z,102379.31
2022-11-30T18:43:54.724Z,102378.53
2022-11-30T18:46:21.282Z,102387.25
2022-11-30T18:48:52.560Z,102387.25
2022-11-30T18:51:21.461Z,102384.81
2022-11-30T18:53:47.917Z,102383.72
2022-11-30T18:56:17.477Z,102393.16
2022-11-30T18:58:44.590Z,102394.25
2022-11-30T19:01:18.394Z,102395.66
2022-11-30T19:03:59.427Z,102388.66
2022-11-30T19:06:29.790Z,102391.47
2022-11-30T19:08:57.028Z,102393.16
2022-11-30T19:11:23.563Z,102394.81
2022-11-30T19:13:56.829Z,102393.94
2022-11-30T19:16:24.633Z,102390.50
2022-11-30T19:18:51.951Z,102400.81
2022-11-30T19:21:20.403Z,102398.66
2022-11-30T19:23:47.047Z,102403.69
2022-11-30T19:26:14.272Z,102394.25
2022-11-30T19:28:41.997Z,102407.03
2022-11-30T19:31:16.847Z,102399.91
2022-11-30T19:33:45.429Z,102409.69
2022-11-30T19:36:15.339Z,102409.84
2022-11-30T19:38:41.764Z,102407.00
2022-11-30T19:41:09.983Z,102411.25
2022-11-30T19:43:36.900Z,102413.28
2022-11-30T19:46:05.468Z,102415.84
2022-11-30T19:48:32.320Z,102419.09
2022-11-30T19:50:58.730Z,102412.44
2022-11-30T19:53:25.076Z,102418.19
2022-11-30T19:55:51.620Z,102421.75
2022-11-30T19:58:17.884Z,102422.53
2022-11-30T20:00:46.611Z,102426.19
2022-11-30T20:03:12.971Z,102416.88
2022-11-30T20:05:39.262Z,102426.31
2022-11-30T20:08:05.999Z,102426.31
2022-11-30T20:10:32.395Z,102428.84
2022-11-30T20:12:59.298Z,102426.72
2022-11-30T20:15:25.609Z,102429.78
2022-11-30T20:17:51.879Z,102429.81
2022-11-30T20:20:18.186Z,102430.47
2022-11-30T20:22:44.456Z,102426.81
2022-11-30T20:25:10.753Z,102433.03
2022-11-30T20:27:37.061Z,102433.72
2022-11-30T20:30:04.217Z,102433.56
2022-11-30T20:32:30.553Z,102443.81
2022-11-30T20:34:56.828Z,102443.88
2022-11-30T20:37:23.124Z,102433.44
2022-11-30T20:39:49.424Z,102446.22
2022-11-30T20:42:15.699Z,102448.19
2022-11-30T20:44:41.999Z,102436.28
2022-11-30T20:47:08.413Z,102436.03
2022-11-30T20:49:34.713Z,102440.34
2022-11-30T20:52:01.016Z,102438.75
2022-11-30T20:54:30.318Z,102437.06
2022-11-30T20:56:58.719Z,102450.75
2022-11-30T20:59:26.566Z,102439.41
2022-11-30T21:01:56.553Z,102442.94
2022-11-30T21:04:25.564Z,102446.25
2022-11-30T21:06:52.794Z,102447.09
2022-11-30T21:09:19.858Z,102444.63
2022-11-30T21:11:47.640Z,102449.03
2022-11-30T21:14:14.356Z,102448.09
2022-11-30T21:16:41.368Z,102448.28
2022-11-30T21:19:07.819Z,102444.75
2022-11-30T21:21:35.263Z,102445.50
2022-11-30T21:24:04.833Z,102441.00
2022-11-30T21:26:34.435Z,102442.69
2022-11-30T21:29:04.737Z,102447.94
2022-11-30T21:31:31.481Z,102448.81
2022-11-30T21:33:58.597Z,102452.25
2022-11-30T21:36:24.978Z,102451.50
2022-11-30T21:39:02.629Z,102449.78
2022-11-30T21:41:31.123Z,102453.09
2022-11-30T21:43:57.663Z,102453.44
2022-11-30T21:46:24.148Z,102452.53
2022-11-30T21:48:50.901Z,102441.22
2022-11-30T21:51:25.972Z,102443.81
2022-11-30T21:53:54.506Z,102442.78
2022-11-30T21:56:23.456Z,102442.22
2022-11-30T21:58:50.788Z,102438.75
2022-11-30T22:01:20.240Z,102441.94
2022-11-30T22:03:46.944Z,102441.88
2022-11-30T22:06:15.902Z,102437.84
2022-11-30T22:08:42.586Z,102440.56
2022-11-30T22:11:11.576Z,102437.06
2022-11-30T22:13:38.550Z,102441.28
2022-11-30T22:16:06.378Z,102444.78
2022-11-30T22:18:33.191Z,102444.53
2022-11-30T22:21:04.813Z,102449.38
2022-11-30T22:23:33.398Z,102444.09
2022-11-30T22:26:10.870Z,102442.47
2022-11-30T22:28:37.361Z,102447.03
2022-11-30T22:31:05.185Z,102445.16
2022-11-30T22:33:33.823Z,102439.03
2022-11-30T22:36:01.312Z,102442.25
2022-11-30T22:38:28.555Z,102439.72
2022-11-30T22:40:55.291Z,102442.16
2022-11-30T22:43:21.563Z,102442.16
2022-11-30T22:45:47.862Z,102444.88
2022-11-30T22:48:14.138Z,102438.03
2022-11-30T22:50:40.422Z,102439.78
2022-11-30T22:53:06.751Z,102442.28
2022-11-30T22:55:33.347Z,102440.72
2022-11-30T22:57:59.706Z,102444.94
2022-11-30T23:00:25.975Z,102442.59
2022-11-30T23:02:52.303Z,102449.38
2022-11-30T23:05:18.680Z,102443.13
2022-11-30T23:07:45.065Z,102439.81
2022-11-30T23:10:11.866Z,102434.44
2022-11-30T23:12:58.471Z,102443.94
2022-11-30T23:15:24.804Z,102441.47
2022-11-30T23:17:51.085Z,102446.56
2022-11-30T23:20:17.450Z,102449.22
2022-11-30T23:22:43.727Z,102447.56
2022-11-30T23:25:10.011Z,102455.59
2022-11-30T23:27:36.308Z,102452.06
2022-11-30T23:30:02.612Z,102445.81
2022-11-30T23:32:28.929Z,102457.97
2022-11-30T23:35:07.945Z,102453.03
2022-11-30T23:37:34.294Z,102455.38
2022-11-30T23:40:00.583Z,102455.19
2022-11-30T23:42:26.860Z,102457.88
2022-11-30T23:44:57.391Z,102464.84
2022-11-30T23:47:23.746Z,102463.22
2022-11-30T23:49:50.326Z,102459.06
2022-11-30T23:52:16.854Z,102458.06
2022-11-30T23:54:43.119Z,102460.53
2022-11-30T23:57:09.400Z,102465.78
2022-11-30T23:59:35.671Z,102469.31
